createdAt,value
2023-04-07T00:01:04.198Z,15.4
2023-04-07T00:04:06.236Z,13.9
2023-04-07T00:07:08.122Z,15.5
2023-04-07T00:10:10.070Z,14.7
2023-04-07T00:13:12.039Z,14.7
2023-04-07T00:16:14.016Z,15.3
2023-04-07T00:19:15.924Z,14.7
2023-04-07T00:22:17.904Z,15.2
2023-04-07T00:25:19.853Z,14
2023-04-07T00:28:21.814Z,14
2023-04-07T00:31:23.809Z,16.3
2023-04-07T00:34:25.742Z,16.2
2023-04-07T00:37:27.728Z,17.5
2023-04-07T00:40:29.963Z,16.3
2023-04-07T00:43:31.689Z,14.9
2023-04-07T00:46:33.786Z,15.8
2023-04-07T00:49:35.672Z,13.3
2023-04-07T00:52:37.641Z,15.8
2023-04-07T00:55:39.611Z,14.6
2023-04-07T00:58:41.552Z,16.3
2023-04-07T01:01:43.584Z,15
2023-04-07T01:04:45.580Z,15.8
2023-04-07T01:07:47.455Z,13.8
2023-04-07T01:10:49.411Z,13.5
2023-04-07T01:13:51.504Z,16.1
2023-04-07T01:19:55.401Z,14.6
2023-04-07T01:22:57.388Z,16.5
2023-04-07T01:25:59.322Z,16.5
2023-04-07T01:29:01.290Z,15.9
2023-04-07T01:32:03.381Z,15.8
2023-04-07T01:35:05.198Z,15.7
2023-04-07T01:38:07.162Z,14.4
2023-04-07T01:41:09.107Z,16.2
2023-04-07T01:44:11.074Z,15.9
2023-04-07T01:47:13.073Z,17
2023-04-07T01:50:14.995Z,15.8
2023-04-07T01:53:16.972Z,16.5
2023-04-07T01:56:18.951Z,15.1
2023-04-07T01:59:20.882Z,14.5
2023-04-07T02:02:22.902Z,13.9
2023-04-07T02:05:24.783Z,13.6
2023-04-07T02:08:26.750Z,12.5
2023-04-07T02:11:28.701Z,12.6
2023-04-07T02:14:30.729Z,13.5
2023-04-07T02:17:32.704Z,13.6
2023-04-07T02:20:34.656Z,13
2023-04-07T02:23:36.597Z,13.1
2023-04-07T02:26:38.572Z,12.6
2023-04-07T02:29:40.746Z,11.8
2023-04-07T02:32:42.488Z,13.6
2023-04-07T02:35:44.450Z,12.1
2023-04-07T02:38:46.424Z,11.1
2023-04-07T02:41:48.392Z,12
2023-04-07T02:44:50.343Z,11.9
2023-04-07T02:47:52.323Z,12.6
2023-04-07T02:50:54.291Z,12.1
2023-04-07T02:53:56.475Z,13
2023-04-07T02:56:58.207Z,13
2023-04-07T03:00:00.160Z,12.5
2023-04-07T03:03:02.433Z,13.2
2023-04-07T03:06:04.114Z,11.8
2023-04-07T03:09:06.093Z,12.8
2023-04-07T03:12:08.090Z,13.2
2023-04-07T03:15:10.027Z,13.7
2023-04-07T03:18:12.012Z,13.3
2023-04-07T03:21:13.969Z,13.3
2023-04-07T03:24:15.916Z,13.9
2023-04-07T03:27:17.894Z,14.1
2023-04-07T03:30:19.865Z,13.9
2023-04-07T03:33:21.875Z,13
2023-04-07T03:36:23.886Z,13.9
2023-04-07T03:39:25.817Z,12.6
2023-04-07T03:42:27.806Z,12.2
2023-04-07T03:45:29.782Z,11.5
2023-04-07T03:48:31.771Z,12.1
2023-04-07T03:51:33.697Z,12.4
2023-04-07T03:54:35.670Z,11.1
2023-04-07T03:57:37.634Z,10.6
2023-04-07T04:00:39.588Z,11.3
2023-04-07T04:03:41.619Z,12.5
2023-04-07T04:06:43.519Z,13.5
2023-04-07T04:09:45.529Z,13.9
2023-04-07T04:12:47.489Z,13
2023-04-07T04:15:49.458Z,13.7
2023-04-07T04:18:51.376Z,12.9
2023-04-07T04:21:53.335Z,14.4
2023-04-07T04:24:55.318Z,13.8
2023-04-07T04:27:57.317Z,12.4
2023-04-07T04:30:59.252Z,13.3
2023-04-07T04:34:01.161Z,13.2
2023-04-07T04:37:03.153Z,12.3
2023-04-07T04:40:05.084Z,13.7
2023-04-07T04:43:07.071Z,13.2
2023-04-07T04:46:08.999Z,12.7
2023-04-07T04:49:10.956Z,12
2023-04-07T04:52:12.972Z,12.4
2023-04-07T04:55:14.936Z,11.4
2023-04-07T04:58:16.878Z,12
2023-04-07T05:01:18.855Z,11.8
2023-04-07T05:04:21.112Z,12.6
2023-04-07T05:07:22.773Z,11.3
2023-04-07T05:10:24.716Z,13.2
2023-04-07T05:13:26.710Z,13.2
2023-04-07T05:16:28.671Z,13.2
2023-04-07T05:19:30.605Z,12.5
2023-04-07T05:22:32.583Z,13.9
2023-04-07T05:25:34.552Z,12.6
2023-04-07T05:28:36.502Z,14.4
2023-04-07T05:31:38.549Z,14.5
2023-04-07T05:34:40.467Z,12.1
2023-04-07T05:37:42.425Z,12.3
2023-04-07T05:40:44.396Z,13.1
2023-04-07T05:43:46.352Z,12.5
2023-04-07T05:46:48.333Z,12
2023-04-07T05:49:50.277Z,12.4
2023-04-07T05:52:52.283Z,12.9
2023-04-07T05:55:54.220Z,14.1
2023-04-07T05:58:56.243Z,13.6
2023-04-07T06:01:58.301Z,12.9
2023-04-07T06:05:00.209Z,11.2
2023-04-07T06:08:02.088Z,10.9
2023-04-07T06:11:04.066Z,11.5
2023-04-07T06:14:06.000Z,12.5
2023-04-07T06:17:08.065Z,12.5
2023-04-07T06:20:10.001Z,12.6
2023-04-07T06:23:11.948Z,11.4
2023-04-07T06:26:13.939Z,11.8
2023-04-07T06:29:15.881Z,12.8
2023-04-07T06:32:17.824Z,13.1
2023-04-07T06:35:19.809Z,11.9
2023-04-07T06:38:21.765Z,10.8
2023-04-07T06:41:23.705Z,11.7
2023-04-07T06:44:25.667Z,13.2
2023-04-07T06:47:27.615Z,13.3
2023-04-07T06:50:29.590Z,13.5
2023-04-07T06:53:31.547Z,11.4
2023-04-07T06:56:33.543Z,12.4
2023-04-07T06:59:35.473Z,11.9
2023-04-07T07:02:37.527Z,12.7
2023-04-07T07:05:39.432Z,14.4
2023-04-07T07:08:41.387Z,13
2023-04-07T07:11:43.532Z,13.2
2023-04-07T07:14:45.405Z,12.3
2023-04-07T07:17:47.379Z,12.5
2023-04-07T07:20:49.332Z,12.9
2023-04-07T07:23:51.260Z,11.6
2023-04-07T07:26:53.223Z,12.4
2023-04-07T07:29:55.194Z,10.7
2023-04-07T07:32:57.169Z,11.2
2023-04-07T07:35:59.146Z,11.8
2023-04-07T07:39:01.075Z,10.9
2023-04-07T07:42:03.076Z,12.4
2023-04-07T07:45:05.064Z,12.1
2023-04-07T07:48:07.091Z,11.3
2023-04-07T07:51:09.203Z,12.8
2023-04-07T07:54:11.224Z,13.6
2023-04-07T07:57:13.015Z,12.6
2023-04-07T08:00:15.047Z,12.8
2023-04-07T08:03:17.101Z,12.6
2023-04-07T08:06:19.040Z,12.1
2023-04-07T08:09:20.986Z,12.2
2023-04-07T08:12:22.956Z,10.9
2023-04-07T08:15:24.934Z,12
2023-04-07T08:18:26.866Z,12.4
2023-04-07T08:21:28.809Z,13.3
2023-04-07T08:24:30.804Z,13.7
2023-04-07T08:27:32.746Z,12
2023-04-07T08:30:34.721Z,11.7
2023-04-07T08:33:36.721Z,12.3
2023-04-07T08:36:38.662Z,13.1
2023-04-07T08:39:40.750Z,12.8
2023-04-07T08:42:42.728Z,13.4
2023-04-07T08:45:44.791Z,12.4
2023-04-07T08:48:46.693Z,12.1
2023-04-07T08:51:48.737Z,11.4
2023-04-07T08:54:50.642Z,11.6
2023-04-07T08:57:52.594Z,12
2023-04-07T09:00:54.615Z,13.7
2023-04-07T09:03:56.673Z,11.6
2023-04-07T09:06:58.570Z,12.9
2023-04-07T09:10:00.642Z,13
2023-04-07T09:13:02.558Z,12.9
2023-04-07T09:16:04.623Z,11.4
2023-04-07T09:19:06.498Z,13.1
2023-04-07T09:22:08.487Z,13.4
2023-04-07T09:25:10.439Z,13.4
2023-04-07T09:28:12.451Z,14.6
2023-04-07T09:31:14.443Z,13.1
2023-04-07T09:34:16.389Z,13.1
2023-04-07T09:37:18.357Z,12.6
2023-04-07T09:40:20.298Z,11.9
2023-04-07T09:43:22.250Z,12.5
2023-04-07T09:46:26.092Z,13.1
2023-04-07T09:49:26.215Z,13.2
2023-04-07T09:52:28.142Z,13.2
2023-04-07T09:55:30.120Z,13.3
2023-04-07T09:58:32.101Z,14.4
2023-04-07T10:01:34.114Z,12.2
2023-04-07T10:04:36.118Z,14.1
2023-04-07T10:07:38.041Z,13
2023-04-07T10:10:40.075Z,13
2023-04-07T10:13:42.025Z,11.2
2023-04-07T10:16:44.066Z,12
2023-04-07T10:19:46.048Z,13.3
2023-04-07T10:22:48.128Z,13.2
2023-04-07T10:25:50.060Z,13.5
2023-04-07T10:28:52.036Z,12.9
2023-04-07T10:31:54.013Z,15.1
2023-04-07T10:34:55.963Z,12.9
2023-04-07T10:37:57.989Z,13
2023-04-07T10:40:59.907Z,14.5
2023-04-07T10:44:01.906Z,13.1
2023-04-07T10:47:03.845Z,13.7
2023-04-07T10:50:05.810Z,13.8
2023-04-07T10:53:07.812Z,13.1
2023-04-07T10:56:09.736Z,13.5
2023-04-07T10:59:11.690Z,15.1
2023-04-07T11:02:13.752Z,14
2023-04-07T11:05:15.665Z,14.9
2023-04-07T11:08:17.644Z,14.2
2023-04-07T11:11:19.664Z,14.6
2023-04-07T11:14:21.728Z,13.2
2023-04-07T11:17:23.700Z,16.4
2023-04-07T11:20:25.664Z,15.8
2023-04-07T11:23:27.668Z,15.1
2023-04-07T11:26:29.659Z,14
2023-04-07T11:29:31.676Z,14.1
2023-04-07T11:32:33.678Z,12.9
2023-04-07T11:35:35.699Z,13.3
2023-04-07T11:38:37.670Z,12.5
2023-04-07T11:41:39.643Z,11.6
2023-04-07T11:44:41.656Z,12
2023-04-07T11:47:43.726Z,12.1
2023-04-07T11:50:45.621Z,11.9
2023-04-07T11:53:47.852Z,12.8
2023-04-07T11:56:49.556Z,13.5
2023-04-07T11:59:51.562Z,13
2023-04-07T12:02:53.806Z,13.7
2023-04-07T12:05:55.458Z,12.9
2023-04-07T12:08:57.443Z,13.8
2023-04-07T12:11:59.404Z,12
2023-04-07T12:15:01.352Z,13.4
2023-04-07T12:18:03.356Z,12.4
2023-04-07T12:21:05.308Z,13.6
2023-04-07T12:24:07.276Z,11.5
2023-04-07T12:27:09.203Z,11.4
2023-04-07T12:30:11.199Z,10.7
2023-04-07T12:33:13.141Z,9
2023-04-07T12:36:15.185Z,8.3
2023-04-07T12:39:17.088Z,9
2023-04-07T12:42:19.074Z,8.3
2023-04-07T12:45:21.030Z,7.9
2023-04-07T12:48:23.039Z,7
2023-04-07T12:51:24.980Z,6.6
2023-04-07T12:54:26.926Z,6.5
2023-04-07T12:57:28.881Z,5.5
2023-04-07T13:00:30.862Z,6
2023-04-07T13:03:32.934Z,6.2
2023-04-07T13:06:34.941Z,5.8
2023-04-07T13:09:36.915Z,5.5
2023-04-07T13:12:38.850Z,5.6
2023-04-07T13:15:40.821Z,5.7
2023-04-07T13:18:42.773Z,6.3
2023-04-07T13:21:46.509Z,6
2023-04-07T13:24:46.713Z,7.3
2023-04-07T13:27:48.785Z,6.7
2023-04-07T13:30:50.760Z,6.3
2023-04-07T13:33:52.716Z,5.5
2023-04-07T13:36:54.651Z,5.7
2023-04-07T13:39:56.614Z,4.5
2023-04-07T13:42:58.620Z,5.2
2023-04-07T13:46:00.540Z,3.8
2023-04-07T13:49:02.530Z,4.1
2023-04-07T13:52:04.486Z,3.7
2023-04-07T13:55:06.401Z,3.1
2023-04-07T13:58:08.355Z,2.9
2023-04-07T14:01:10.377Z,2.7
2023-04-07T14:04:12.374Z,2.8
2023-04-07T14:07:14.270Z,2.4
2023-04-07T14:10:16.288Z,3
2023-04-07T14:13:18.218Z,3.8
2023-04-07T14:16:20.221Z,4.1
2023-04-07T14:19:22.141Z,4.1
2023-04-07T14:22:24.086Z,4
2023-04-07T14:25:26.039Z,3.6
2023-04-07T14:28:28.009Z,3.2
2023-04-07T14:31:30.122Z,3.3
2023-04-07T14:34:32.103Z,3.1
2023-04-07T14:37:33.949Z,3.5
2023-04-07T14:40:35.935Z,3.1
2023-04-07T14:43:37.890Z,3.3
2023-04-07T14:46:39.869Z,3.1
2023-04-07T14:49:41.830Z,2.1
2023-04-07T14:52:43.791Z,2
2023-04-07T14:55:45.785Z,2.1
2023-04-07T14:58:47.712Z,1.7
2023-04-07T15:01:49.740Z,1.7
2023-04-07T15:04:51.673Z,1.9
2023-04-07T15:07:53.653Z,1.6
2023-04-07T15:10:55.596Z,1.9
2023-04-07T15:13:57.539Z,2.2
2023-04-07T15:16:59.511Z,1.9
2023-04-07T15:20:01.437Z,1.4
2023-04-07T15:23:03.431Z,1.2
2023-04-07T15:26:05.428Z,1.2
2023-04-07T15:29:07.366Z,1
2023-04-07T15:32:09.349Z,1.3
2023-04-07T15:35:11.633Z,1.2
2023-04-07T15:38:13.254Z,1.2
2023-04-07T15:41:15.237Z,1
2023-04-07T15:44:17.181Z,0.8
2023-04-07T15:47:19.125Z,0.7
2023-04-07T15:50:21.128Z,0.9
2023-04-07T15:53:23.101Z,0.9
2023-04-07T15:56:25.090Z,0.6
2023-04-07T15:59:27.026Z,0.7
2023-04-07T16:02:29.115Z,0.7
2023-04-07T16:05:31.025Z,0.7
2023-04-07T16:08:33.017Z,0.7
2023-04-07T16:11:34.964Z,0.7
2023-04-07T16:14:37.031Z,0.6
2023-04-07T16:17:38.941Z,0.7
2023-04-07T16:20:40.912Z,0.8
2023-04-07T16:23:42.895Z,1.2
2023-04-07T16:26:44.787Z,1.4
2023-04-07T16:29:46.749Z,1.1
2023-04-07T16:32:48.764Z,1.5
2023-04-07T16:35:50.717Z,1.8
2023-04-07T16:38:52.613Z,1.9
2023-04-07T16:41:54.580Z,1.6
2023-04-07T16:44:56.564Z,1.7
2023-04-07T16:47:58.546Z,1.7
2023-04-07T16:51:00.489Z,1.7
2023-04-07T16:54:02.443Z,1.7
2023-04-07T16:57:04.398Z,2
2023-04-07T17:00:06.349Z,1.8
2023-04-07T17:03:08.478Z,1.9
2023-04-07T17:06:10.280Z,1.6
2023-04-07T17:09:12.250Z,1.6
2023-04-07T17:12:14.264Z,1.4
2023-04-07T17:15:16.183Z,1.5
2023-04-07T17:18:18.132Z,1.8
2023-04-07T17:21:20.225Z,1.5
2023-04-07T17:24:22.177Z,1.9
2023-04-07T17:27:24.150Z,1.7
2023-04-07T17:30:26.100Z,1.7
2023-04-07T17:33:28.992Z,2.3
2023-04-07T17:36:30.005Z,2.6
2023-04-07T17:39:31.977Z,2
2023-04-07T17:42:33.937Z,2.2
2023-04-07T17:45:35.909Z,2.3
2023-04-07T17:48:37.877Z,2.3
2023-04-07T17:51:39.852Z,2.3
2023-04-07T17:54:41.793Z,2.1
2023-04-07T17:57:43.754Z,1.8
2023-04-07T18:00:45.716Z,1.6
2023-04-07T18:03:47.879Z,2.1
2023-04-07T18:06:49.641Z,2.4
2023-04-07T18:09:51.595Z,1.9
2023-04-07T18:12:53.984Z,2.3
2023-04-07T18:15:55.655Z,1.8
2023-04-07T18:18:57.610Z,2.6
2023-04-07T18:21:59.562Z,2.5
2023-04-07T18:25:01.495Z,2.3
2023-04-07T18:28:03.468Z,2.3
2023-04-07T18:31:05.505Z,2.4
2023-04-07T18:34:07.367Z,2.6
2023-04-07T18:37:09.334Z,2.3
2023-04-07T18:40:11.300Z,2.5
2023-04-07T18:43:14.275Z,2.5
2023-04-07T18:46:15.312Z,2.4
2023-04-07T18:49:17.211Z,2.3
2023-04-07T18:52:19.263Z,2.4
2023-04-07T18:55:21.163Z,2.3
2023-04-07T18:58:23.116Z,2.7
2023-04-07T19:01:25.072Z,2.8
2023-04-07T19:04:27.100Z,2.8
2023-04-07T19:07:28.993Z,2.9
2023-04-07T19:10:30.969Z,2.7
2023-04-07T19:13:32.910Z,3.2
2023-04-07T19:16:34.909Z,3
2023-04-07T19:19:36.816Z,3
2023-04-07T19:22:38.782Z,2.8
2023-04-07T19:25:40.728Z,2.9
2023-04-07T19:28:42.687Z,3.2
2023-04-07T19:31:44.697Z,3.5
2023-04-07T19:34:46.704Z,3.8
2023-04-07T19:37:48.586Z,2.9
2023-04-07T19:40:50.606Z,3.2
2023-04-07T19:43:52.508Z,3.3
2023-04-07T19:46:54.498Z,3
2023-04-07T19:49:56.432Z,2.7
2023-04-07T19:52:58.435Z,3
2023-04-07T19:56:00.371Z,3.1
2023-04-07T19:59:02.349Z,2.7
2023-04-07T20:02:04.362Z,2.8
2023-04-07T20:05:06.254Z,2.6
2023-04-07T20:08:08.213Z,2.5
2023-04-07T20:11:10.169Z,2.9
2023-04-07T20:14:12.128Z,3.3
2023-04-07T20:17:14.120Z,3.9
2023-04-07T20:20:16.034Z,3.4
2023-04-07T20:23:17.980Z,3.5
2023-04-07T20:26:19.952Z,2.7
2023-04-07T20:29:22.369Z,3.2
2023-04-07T20:32:23.862Z,3.2
2023-04-07T20:35:25.837Z,3.2
2023-04-07T20:38:27.764Z,2.5
2023-04-07T20:41:29.740Z,3.2
2023-04-07T20:44:31.694Z,3.1
2023-04-07T20:47:33.671Z,2.9
2023-04-07T20:50:35.623Z,2.5
2023-04-07T20:53:37.552Z,3
2023-04-07T20:56:39.539Z,2.8
2023-04-07T20:59:41.622Z,3.1
2023-04-07T21:02:43.554Z,3.2
2023-04-07T21:05:45.425Z,3.3
2023-04-07T21:08:47.626Z,3.4
2023-04-07T21:11:49.435Z,3.6
2023-04-07T21:14:51.323Z,3.6
2023-04-07T21:17:53.310Z,3.6
2023-04-07T21:20:55.247Z,3.2
2023-04-07T21:23:57.211Z,3.6
2023-04-07T21:26:59.194Z,3.3
2023-04-07T21:30:01.136Z,3.3
2023-04-07T21:33:03.237Z,3.8
2023-04-07T21:36:05.124Z,3.4
2023-04-07T21:39:07.060Z,3.6
2023-04-07T21:42:09.015Z,3.1
2023-04-07T21:45:10.949Z,3.6
2023-04-07T21:48:12.905Z,3.3
2023-04-07T21:51:14.884Z,2.7
2023-04-07T21:54:16.830Z,3.7
2023-04-07T21:57:18.893Z,3.4
2023-04-07T22:00:20.795Z,3.7
2023-04-07T22:03:22.950Z,3.2
2023-04-07T22:06:24.719Z,2.8
2023-04-07T22:09:26.677Z,3.1
2023-04-07T22:12:28.848Z,3.3
2023-04-07T22:15:30.759Z,3.6
2023-04-07T22:18:32.706Z,4
2023-04-07T22:21:34.653Z,3.3
2023-04-07T22:24:36.643Z,4.1
2023-04-07T22:27:38.616Z,3.9
2023-04-07T22:30:40.566Z,3.5
2023-04-07T22:33:42.549Z,3.4
2023-04-07T22:36:44.503Z,4
2023-04-07T22:39:46.478Z,3.1
2023-04-07T22:42:48.450Z,2.9
2023-04-07T22:45:50.413Z,2.6
2023-04-07T22:48:52.347Z,2.5
2023-04-07T22:51:54.331Z,2.9
2023-04-07T22:54:56.325Z,2.7
2023-04-07T22:57:58.274Z,2.4
2023-04-07T23:01:00.241Z,2.6
2023-04-07T23:04:02.198Z,2.7
2023-04-07T23:07:04.125Z,2.7
2023-04-07T23:10:06.086Z,2.2
2023-04-07T23:13:08.046Z,2.5
2023-04-07T23:16:10.014Z,2.6
2023-04-07T23:19:11.951Z,2.8
2023-04-07T23:22:13.929Z,2.6
2023-04-07T23:25:15.868Z,2.6
2023-04-07T23:28:17.829Z,2.8
2023-04-07T23:31:19.852Z,2.5
2023-04-07T23:34:21.778Z,2.9
2023-04-07T23:37:23.740Z,2.8
2023-04-07T23:40:25.743Z,2.6
2023-04-07T23:43:27.686Z,2.8
2023-04-07T23:46:29.671Z,2.8
2023-04-07T23:49:31.621Z,2.4
2023-04-07T23:52:33.597Z,2.8
2023-04-07T23:55:35.602Z,2.8
2023-04-07T23:58:37.553Z,2.7
